createdAt,value
2019-02-05T00:00:46.127Z,-5.90
2019-02-05T00:03:16.340Z,-6.01
2019-02-05T00:05:45.774Z,-6.15
2019-02-05T00:08:14.437Z,-6.23
2019-02-05T00:10:43.114Z,-6.19
2019-02-05T00:13:12.141Z,-6.25
2019-02-05T00:15:40.839Z,-6.39
2019-02-05T00:18:09.656Z,-6.51
2019-02-05T00:20:38.165Z,-6.58
2019-02-05T00:23:06.794Z,-6.61
2019-02-05T00:25:35.419Z,-6.60
2019-02-05T00:28:04.187Z,-6.72
2019-02-05T00:30:32.878Z,-6.74
2019-02-05T00:33:01.650Z,-6.64
2019-02-05T00:35:30.304Z,-6.59
2019-02-05T00:37:58.862Z,-6.61
2019-02-05T00:40:27.531Z,-6.57
2019-02-05T00:42:56.066Z,-6.53
2019-02-05T00:45:24.967Z,-6.61
2019-02-05T00:47:53.523Z,-6.74
2019-02-05T00:50:22.889Z,-6.87
2019-02-05T00:52:51.560Z,-6.91
2019-02-05T00:55:20.900Z,-7.00
2019-02-05T00:57:50.427Z,-6.98
2019-02-05T01:00:31.930Z,-6.90
2019-02-05T01:03:00.768Z,-6.87
2019-02-05T01:05:29.494Z,-6.72
2019-02-05T01:07:58.361Z,-6.56
2019-02-05T01:10:27.348Z,-6.37
2019-02-05T01:12:57.058Z,-6.16
2019-02-05T01:15:26.826Z,-6.01
2019-02-05T01:17:55.355Z,-5.78
2019-02-05T01:20:24.249Z,-5.58
2019-02-05T01:22:53.168Z,-5.46
2019-02-05T01:25:22.613Z,-5.35
2019-02-05T01:27:52.441Z,-5.23
2019-02-05T01:30:24.087Z,-5.17
2019-02-05T01:32:52.951Z,-5.09
2019-02-05T01:35:22.086Z,-5.06
2019-02-05T01:37:50.793Z,-5.05
2019-02-05T01:40:21.944Z,-4.97
2019-02-05T01:42:50.534Z,-4.95
2019-02-05T01:45:20.762Z,-4.94
2019-02-05T01:47:50.479Z,-4.95
2019-02-05T01:50:21.714Z,-4.95
2019-02-05T01:52:50.337Z,-4.95
2019-02-05T01:55:19.311Z,-4.95
2019-02-05T01:57:47.964Z,-5.00
2019-02-05T02:00:21.911Z,-5.02
2019-02-05T02:02:50.625Z,-5.05
2019-02-05T02:05:21.364Z,-5.06
2019-02-05T02:07:50.155Z,-5.04
2019-02-05T02:10:24.485Z,-5.05
2019-02-05T02:12:53.717Z,-5.04
2019-02-05T02:15:22.432Z,-5.05
2019-02-05T02:17:51.086Z,-5.04
2019-02-05T02:20:21.739Z,-5.04
2019-02-05T02:22:50.815Z,-5.06
2019-02-05T02:25:19.756Z,-5.05
2019-02-05T02:27:50.010Z,-5.02
2019-02-05T02:30:38.747Z,-5.00
2019-02-05T02:33:07.371Z,-4.99
2019-02-05T02:35:36.350Z,-5.00
2019-02-05T02:38:05.500Z,-5.01
2019-02-05T02:40:34.077Z,-5.02
2019-02-05T02:43:03.649Z,-5.04
2019-02-05T02:45:33.197Z,-5.05
2019-02-05T02:48:02.004Z,-5.08
2019-02-05T02:50:30.840Z,-5.09
2019-02-05T02:52:59.514Z,-5.11
2019-02-05T02:55:28.183Z,-5.17
2019-02-05T02:57:56.763Z,-5.19
2019-02-05T03:00:25.384Z,-5.22
2019-02-05T03:02:53.894Z,-5.24
2019-02-05T03:05:24.384Z,-5.27
2019-02-05T03:07:53.514Z,-5.32
2019-02-05T03:10:27.845Z,-5.36
2019-02-05T03:12:56.733Z,-5.40
2019-02-05T03:15:25.746Z,-5.43
2019-02-05T03:17:54.343Z,-5.46
2019-02-05T03:20:22.894Z,-5.50
2019-02-05T03:22:51.955Z,-5.53
2019-02-05T03:25:23.277Z,-5.54
2019-02-05T03:27:53.916Z,-5.49
2019-02-05T03:30:25.710Z,-5.48
2019-02-05T03:32:56.143Z,-5.51
2019-02-05T03:35:25.167Z,-5.54
2019-02-05T03:37:54.358Z,-5.57
2019-02-05T03:40:29.523Z,-5.58
2019-02-05T03:42:58.623Z,-5.59
2019-02-05T03:45:29.175Z,-5.57
2019-02-05T03:48:02.699Z,-5.58
2019-02-05T03:50:33.833Z,-5.58
2019-02-05T03:53:11.931Z,-5.57
2019-02-05T03:55:55.337Z,-5.60
2019-02-05T03:58:35.958Z,-5.56
2019-02-05T04:01:13.619Z,-5.57
2019-02-05T04:03:47.905Z,-5.55
2019-02-05T04:06:25.552Z,-5.54
2019-02-05T04:09:13.499Z,-5.55
2019-02-05T04:12:03.295Z,-5.55
2019-02-05T04:15:00.703Z,-5.55
2019-02-05T04:17:44.335Z,-5.56
2019-02-05T04:20:30.822Z,-5.59
2019-02-05T04:23:23.892Z,-5.60
2019-02-05T04:26:11.900Z,-5.65
2019-02-05T04:28:55.982Z,-5.70
2019-02-05T04:31:53.197Z,-5.74
2019-02-05T04:34:44.640Z,-5.81
2019-02-05T04:37:37.165Z,-5.88
2019-02-05T04:40:31.563Z,-5.91
2019-02-05T04:43:07.373Z,-6.07
2019-02-05T04:45:44.770Z,-6.19
2019-02-05T04:48:33.276Z,-6.31
2019-02-05T04:51:10.601Z,-6.42
2019-02-05T04:53:54.078Z,-6.69
2019-02-05T04:56:42.192Z,-6.80
2019-02-05T04:59:30.601Z,-6.87
2019-02-05T05:02:23.963Z,-6.98
2019-02-05T05:04:58.420Z,-7.11
2019-02-05T05:07:30.003Z,-7.12
2019-02-05T05:09:59.262Z,-7.09
2019-02-05T05:12:28.934Z,-7.08
2019-02-05T05:14:57.641Z,-7.13
2019-02-05T05:17:26.282Z,-7.28
2019-02-05T05:19:54.904Z,-7.33
2019-02-05T05:22:24.788Z,-7.28
2019-02-05T05:24:53.625Z,-7.22
2019-02-05T05:27:22.621Z,-7.18
2019-02-05T05:29:52.120Z,-7.11
2019-02-05T05:32:21.540Z,-7.08
2019-02-05T05:34:50.254Z,-7.06
2019-02-05T05:37:17.661Z,-7.08
2019-02-05T05:39:46.256Z,-7.10
2019-02-05T05:42:15.831Z,-7.07
2019-02-05T05:44:45.269Z,-7.05
2019-02-05T05:47:13.824Z,-6.95
2019-02-05T05:49:43.352Z,-6.97
2019-02-05T05:52:13.902Z,-7.02
2019-02-05T05:54:42.464Z,-7.06
2019-02-05T05:57:11.042Z,-7.11
2019-02-05T05:59:39.627Z,-7.22
2019-02-05T06:02:08.208Z,-7.27
2019-02-05T06:04:36.782Z,-7.33
2019-02-05T06:07:05.410Z,-7.31
2019-02-05T06:09:34.060Z,-7.40
2019-02-05T06:12:02.711Z,-7.41
2019-02-05T06:14:31.347Z,-7.35
2019-02-05T06:16:59.966Z,-7.30
2019-02-05T06:19:28.632Z,-7.24
2019-02-05T06:21:57.146Z,-7.15
2019-02-05T06:24:25.722Z,-7.12
2019-02-05T06:26:54.390Z,-7.01
2019-02-05T06:29:23.149Z,-6.89
2019-02-05T06:31:51.800Z,-6.80
2019-02-05T06:34:20.382Z,-6.69
2019-02-05T06:36:49.012Z,-6.60
2019-02-05T06:39:17.569Z,-6.51
2019-02-05T06:41:46.295Z,-6.47
2019-02-05T06:44:14.842Z,-6.46
2019-02-05T06:46:44.016Z,-6.42
2019-02-05T06:49:12.759Z,-6.34
2019-02-05T06:51:41.800Z,-6.19
2019-02-05T06:54:11.242Z,-6.13
2019-02-05T06:56:42.346Z,-6.11
2019-02-05T06:59:10.107Z,-6.08
2019-02-05T07:01:38.711Z,-6.06
2019-02-05T07:04:07.642Z,-6.04
2019-02-05T07:06:36.278Z,-5.90
2019-02-05T07:09:08.309Z,-5.86
2019-02-05T07:11:37.019Z,-5.81
2019-02-05T07:14:06.439Z,-5.79
2019-02-05T07:16:35.154Z,-5.80
2019-02-05T07:19:04.071Z,-5.77
2019-02-05T07:21:32.671Z,-5.77
2019-02-05T07:24:01.828Z,-5.72
2019-02-05T07:26:30.472Z,-5.68
2019-02-05T07:29:02.072Z,-5.59
2019-02-05T07:31:29.451Z,-5.53
2019-02-05T07:33:57.979Z,-5.46
2019-02-05T07:36:26.544Z,-5.40
2019-02-05T07:38:55.037Z,-5.30
2019-02-05T07:41:23.629Z,-5.20
2019-02-05T07:43:52.440Z,-5.12
2019-02-05T07:46:21.075Z,-5.00
2019-02-05T07:48:50.522Z,-4.89
2019-02-05T07:51:19.075Z,-4.79
2019-02-05T07:53:47.668Z,-4.66
2019-02-05T07:56:17.276Z,-4.58
2019-02-05T07:58:45.884Z,-4.46
2019-02-05T08:01:17.527Z,-4.34
2019-02-05T08:03:45.142Z,-4.23
2019-02-05T08:06:13.826Z,-4.05
2019-02-05T08:08:45.521Z,-3.84
2019-02-05T08:11:14.387Z,-3.58
2019-02-05T08:13:43.029Z,-3.33
2019-02-05T08:16:12.283Z,-3.13
2019-02-05T08:18:41.138Z,-2.94
2019-02-05T08:21:09.708Z,-2.78
2019-02-05T08:23:38.341Z,-2.68
2019-02-05T08:26:07.050Z,-2.64
2019-02-05T08:28:40.883Z,-2.65
2019-02-05T08:31:06.301Z,-2.73
2019-02-05T08:33:35.490Z,-2.76
2019-02-05T08:36:04.883Z,-2.79
2019-02-05T08:38:33.607Z,-2.89
2019-02-05T08:41:02.348Z,-2.99
2019-02-05T08:43:30.937Z,-3.10
2019-02-05T08:45:59.726Z,-3.21
2019-02-05T08:48:28.507Z,-3.33
2019-02-05T08:50:57.662Z,-3.41
2019-02-05T08:53:26.313Z,-3.50
2019-02-05T08:55:55.036Z,-3.58
2019-02-05T08:58:31.243Z,-3.65
2019-02-05T09:00:54.525Z,-3.70
2019-02-05T09:03:23.283Z,-3.77
2019-02-05T09:05:52.914Z,-3.78
2019-02-05T09:08:21.552Z,-3.76
2019-02-05T09:10:50.562Z,-3.62
2019-02-05T09:13:20.211Z,-3.62
2019-02-05T09:15:48.796Z,-3.56
2019-02-05T09:18:17.414Z,-3.42
2019-02-05T09:20:45.998Z,-3.28
2019-02-05T09:23:14.569Z,-3.20
2019-02-05T09:25:43.694Z,-3.09
2019-02-05T09:28:14.097Z,-2.97
2019-02-05T09:30:42.794Z,-2.84
2019-02-05T09:33:13.935Z,-2.69
2019-02-05T09:35:42.601Z,-2.53
2019-02-05T09:38:11.285Z,-2.32
2019-02-05T09:40:40.258Z,-2.15
2019-02-05T09:43:09.336Z,-2.00
2019-02-05T09:45:38.409Z,-1.87
2019-02-05T09:48:07.073Z,-1.70
2019-02-05T09:50:44.159Z,-1.53
2019-02-05T09:53:06.557Z,-1.40
2019-02-05T09:55:36.263Z,-1.27
2019-02-05T09:58:05.286Z,-1.19
2019-02-05T10:00:39.558Z,-1.18
2019-02-05T10:03:08.687Z,-1.27
2019-02-05T10:05:37.682Z,-1.29
2019-02-05T10:08:07.511Z,-1.33
2019-02-05T10:10:36.352Z,-1.50
2019-02-05T10:13:05.895Z,-1.58
2019-02-05T10:15:36.854Z,-1.60
2019-02-05T10:18:07.307Z,-1.69
2019-02-05T10:20:35.868Z,-1.64
2019-02-05T10:23:05.480Z,-1.60
2019-02-05T10:25:34.380Z,-1.60
2019-02-05T10:28:03.038Z,-1.51
2019-02-05T10:30:37.150Z,-1.41
2019-02-05T10:33:07.039Z,-1.33
2019-02-05T10:35:35.728Z,-1.34
2019-02-05T10:38:05.011Z,-1.39
2019-02-05T10:40:33.795Z,-1.47
2019-02-05T10:43:03.950Z,-1.34
2019-02-05T10:45:32.988Z,-1.37
2019-02-05T10:48:02.038Z,-1.32
2019-02-05T10:50:30.742Z,-1.20
2019-02-05T10:52:59.525Z,-1.14
2019-02-05T10:55:28.965Z,-1.02
2019-02-05T10:57:57.715Z,-1.01
2019-02-05T11:00:28.599Z,-1.02
2019-02-05T11:02:58.891Z,-1.07
2019-02-05T11:05:29.037Z,-0.97
2019-02-05T11:07:57.746Z,-0.80
2019-02-05T11:10:26.579Z,-0.73
2019-02-05T11:12:55.342Z,-0.53
2019-02-05T11:15:29.552Z,-0.32
2019-02-05T11:17:58.459Z,-0.16
2019-02-05T11:20:28.645Z,-0.16
2019-02-05T11:23:00.228Z,0.02
2019-02-05T11:25:28.954Z,0.20
2019-02-05T11:27:57.602Z,0.20
2019-02-05T11:30:28.819Z,0.40
2019-02-05T11:32:57.556Z,0.56
2019-02-05T11:35:26.213Z,0.65
2019-02-05T11:37:54.777Z,0.73
2019-02-05T11:40:31.722Z,1.00
2019-02-05T11:43:00.403Z,1.00
2019-02-05T11:45:29.671Z,1.26
2019-02-05T11:47:59.212Z,1.45
2019-02-05T11:50:27.904Z,1.62
2019-02-05T11:52:57.125Z,1.83
2019-02-05T11:55:28.033Z,1.98
2019-02-05T11:57:56.997Z,2.28
2019-02-05T12:00:32.787Z,2.61
2019-02-05T12:02:57.987Z,2.84
2019-02-05T12:05:26.766Z,3.14
2019-02-05T12:07:55.747Z,3.62
2019-02-05T12:10:25.386Z,4.21
2019-02-05T12:12:54.044Z,4.94
2019-02-05T12:15:22.772Z,5.67
2019-02-05T12:17:51.602Z,6.46
2019-02-05T12:20:20.644Z,7.12
2019-02-05T12:22:50.439Z,7.87
2019-02-05T12:25:26.423Z,8.61
2019-02-05T12:27:54.997Z,9.10
2019-02-05T12:30:44.458Z,9.54
2019-02-05T12:33:06.055Z,9.81
2019-02-05T12:35:34.881Z,10.25
2019-02-05T12:38:04.110Z,10.48
2019-02-05T12:40:32.825Z,10.53
2019-02-05T12:43:01.488Z,10.38
2019-02-05T12:45:33.030Z,10.92
2019-02-05T12:48:02.716Z,11.41
2019-02-05T12:50:39.303Z,11.88
2019-02-05T12:53:07.998Z,12.16
2019-02-05T12:55:37.044Z,12.52
2019-02-05T12:58:06.415Z,12.77
2019-02-05T13:00:41.083Z,12.94
2019-02-05T13:03:10.774Z,13.00
2019-02-05T13:05:40.309Z,13.18
2019-02-05T13:08:09.305Z,13.13
2019-02-05T13:10:40.757Z,13.31
2019-02-05T13:13:10.695Z,13.43
2019-02-05T13:15:39.457Z,13.86
2019-02-05T13:18:08.395Z,13.42
2019-02-05T13:20:37.840Z,12.07
2019-02-05T13:23:07.411Z,10.95
2019-02-05T13:25:37.316Z,9.89
2019-02-05T13:28:08.416Z,9.02
2019-02-05T13:30:38.916Z,8.28
2019-02-05T13:33:09.312Z,7.40
2019-02-05T13:35:39.386Z,6.90
2019-02-05T13:38:08.157Z,6.37
2019-02-05T13:40:36.853Z,6.04
2019-02-05T13:43:06.578Z,5.72
2019-02-05T13:45:37.902Z,5.47
2019-02-05T13:48:07.355Z,5.24
2019-02-05T13:50:36.533Z,5.13
2019-02-05T13:53:06.145Z,4.83
2019-02-05T13:55:37.747Z,4.83
2019-02-05T13:58:06.633Z,4.73
2019-02-05T14:00:43.645Z,4.49
2019-02-05T14:03:13.420Z,4.26
2019-02-05T14:05:42.178Z,4.04
2019-02-05T14:08:11.056Z,3.99
2019-02-05T14:10:41.756Z,3.93
2019-02-05T14:13:10.397Z,4.00
2019-02-05T14:15:41.541Z,4.01
2019-02-05T14:18:10.954Z,3.94
2019-02-05T14:20:39.778Z,3.88
2019-02-05T14:23:08.740Z,4.02
2019-02-05T14:25:37.206Z,4.76
2019-02-05T14:28:05.809Z,4.47
2019-02-05T14:30:40.034Z,4.32
2019-02-05T14:33:08.808Z,4.22
2019-02-05T14:35:37.458Z,4.05
2019-02-05T14:38:07.141Z,3.90
2019-02-05T14:40:35.689Z,3.72
2019-02-05T14:43:04.717Z,3.57
2019-02-05T14:45:33.579Z,3.42
2019-02-05T14:48:02.296Z,3.45
2019-02-05T14:50:33.398Z,3.70
2019-02-05T14:53:02.341Z,4.15
2019-02-05T14:55:30.901Z,4.13
2019-02-05T14:57:59.431Z,4.31
2019-02-05T15:00:35.663Z,4.05
2019-02-05T15:03:06.975Z,3.54
2019-02-05T15:05:35.567Z,3.23
2019-02-05T15:08:05.959Z,2.97
2019-02-05T15:10:34.704Z,2.76
2019-02-05T15:13:05.461Z,2.57
2019-02-05T15:15:34.333Z,2.39
2019-02-05T15:18:04.855Z,2.20
2019-02-05T15:20:35.675Z,2.09
2019-02-05T15:23:05.383Z,1.90
2019-02-05T15:25:33.877Z,1.76
2019-02-05T15:28:02.345Z,1.63
2019-02-05T15:30:43.347Z,1.52
2019-02-05T15:33:21.350Z,1.42
2019-02-05T15:35:51.572Z,1.34
2019-02-05T15:38:20.179Z,1.24
2019-02-05T15:40:49.160Z,1.24
2019-02-05T15:43:17.671Z,1.19
2019-02-05T15:45:46.222Z,1.16
2019-02-05T15:48:14.767Z,1.13
2019-02-05T15:50:43.358Z,1.12
2019-02-05T15:53:11.890Z,1.09
2019-02-05T15:55:41.809Z,1.07
2019-02-05T15:58:10.334Z,1.05
2019-02-05T16:00:39.248Z,1.04
2019-02-05T16:03:08.271Z,1.01
2019-02-05T16:05:37.028Z,0.98
2019-02-05T16:08:06.408Z,0.95
2019-02-05T16:10:34.935Z,0.93
2019-02-05T16:13:03.517Z,0.92
2019-02-05T16:15:32.046Z,0.92
2019-02-05T16:18:00.580Z,0.90
2019-02-05T16:20:29.164Z,0.92
2019-02-05T16:22:57.770Z,0.89
2019-02-05T16:25:26.329Z,0.88
2019-02-05T16:27:55.198Z,0.88
2019-02-05T16:30:29.122Z,0.87
2019-02-05T16:32:57.647Z,0.86
2019-02-05T16:35:26.434Z,0.85
2019-02-05T16:37:55.621Z,0.84
2019-02-05T16:40:26.269Z,0.83
2019-02-05T16:42:55.439Z,0.81
2019-02-05T16:45:26.791Z,0.79
2019-02-05T16:47:55.398Z,0.77
2019-02-05T16:50:29.528Z,0.76
2019-02-05T16:52:58.299Z,0.75
2019-02-05T16:55:26.827Z,0.74
2019-02-05T16:57:55.423Z,0.73
2019-02-05T17:00:26.668Z,0.70
2019-02-05T17:02:55.988Z,0.70
2019-02-05T17:05:26.089Z,0.73
2019-02-05T17:07:54.660Z,0.74
2019-02-05T17:10:24.844Z,0.82
2019-02-05T17:12:53.805Z,0.84
2019-02-05T17:15:22.408Z,0.85
2019-02-05T17:17:51.007Z,0.86
2019-02-05T17:20:22.565Z,0.95
2019-02-05T17:22:51.265Z,1.16
2019-02-05T17:25:21.567Z,1.22
2019-02-05T17:27:50.943Z,1.21
2019-02-05T17:30:24.691Z,1.23
2019-02-05T17:32:53.308Z,1.35
2019-02-05T17:35:21.965Z,1.37
2019-02-05T17:37:50.861Z,1.38
2019-02-05T17:40:24.229Z,1.37
2019-02-05T17:42:53.876Z,1.35
2019-02-05T17:45:30.705Z,1.35
2019-02-05T17:48:01.323Z,1.35
2019-02-05T17:50:29.932Z,1.30
2019-02-05T17:52:58.943Z,1.23
2019-02-05T17:55:27.523Z,1.23
2019-02-05T17:57:56.087Z,1.23
2019-02-05T18:00:29.238Z,1.21
2019-02-05T18:02:57.890Z,1.18
2019-02-05T18:05:26.627Z,1.16
2019-02-05T18:07:55.639Z,1.14
2019-02-05T18:10:28.988Z,1.13
2019-02-05T18:12:57.588Z,1.10
2019-02-05T18:15:34.316Z,1.09
2019-02-05T18:18:04.011Z,1.09
2019-02-05T18:20:32.753Z,1.09
2019-02-05T18:23:02.844Z,1.07
2019-02-05T18:25:32.849Z,1.07
2019-02-05T18:28:02.296Z,1.05
2019-02-05T18:30:33.515Z,1.05
2019-02-05T18:33:04.626Z,1.03
2019-02-05T18:35:32.663Z,1.02
2019-02-05T18:38:02.348Z,1.04
2019-02-05T18:40:30.962Z,1.02
2019-02-05T18:42:59.680Z,1.04
2019-02-05T18:45:28.260Z,1.05
2019-02-05T18:47:56.867Z,1.04
2019-02-05T18:50:27.480Z,1.03
2019-02-05T18:52:56.040Z,1.04
2019-02-05T18:55:27.092Z,1.03
2019-02-05T18:57:55.585Z,1.02
2019-02-05T19:00:32.835Z,1.02
2019-02-05T19:03:01.525Z,1.00
2019-02-05T19:05:30.146Z,0.99
2019-02-05T19:07:59.037Z,1.02
2019-02-05T19:10:30.291Z,1.03
2019-02-05T19:12:59.894Z,1.03
2019-02-05T19:15:34.576Z,1.02
2019-02-05T19:18:04.056Z,1.01
2019-02-05T19:20:32.964Z,1.01
2019-02-05T19:23:03.016Z,1.01
2019-02-05T19:25:34.320Z,1.03
2019-02-05T19:28:02.933Z,1.07
2019-02-05T19:30:33.232Z,1.05
2019-02-05T19:33:02.089Z,1.03
2019-02-05T19:35:30.692Z,1.01
2019-02-05T19:37:59.286Z,1.00
2019-02-05T19:40:27.929Z,0.98
2019-02-05T19:42:56.451Z,0.96
2019-02-05T19:45:30.072Z,0.92
2019-02-05T19:48:00.627Z,0.90
2019-02-05T19:50:29.130Z,0.87
2019-02-05T19:52:57.770Z,0.88
2019-02-05T19:55:26.309Z,0.89
2019-02-05T19:57:56.273Z,0.89
2019-02-05T20:00:24.857Z,0.89
2019-02-05T20:02:55.460Z,0.88
2019-02-05T20:05:23.530Z,0.87
2019-02-05T20:07:52.235Z,0.86
2019-02-05T20:10:20.708Z,0.86
2019-02-05T20:12:49.236Z,0.84
2019-02-05T20:15:19.804Z,0.85
2019-02-05T20:17:50.241Z,0.85
2019-02-05T20:20:20.281Z,0.86
2019-02-05T20:22:49.063Z,0.85
2019-02-05T20:25:20.437Z,0.84
2019-02-05T20:27:48.978Z,0.81
2019-02-05T20:30:20.652Z,0.81
2019-02-05T20:32:49.116Z,0.81
2019-02-05T20:35:17.724Z,0.81
2019-02-05T20:37:46.517Z,0.82
2019-02-05T20:40:20.477Z,0.80
2019-02-05T20:42:49.171Z,0.79
2019-02-05T20:45:17.772Z,0.77
2019-02-05T20:47:46.324Z,0.78
2019-02-05T20:50:18.985Z,0.77
2019-02-05T20:52:47.697Z,0.77
2019-02-05T20:55:17.990Z,0.77
2019-02-05T20:57:47.093Z,0.78
2019-02-05T21:00:27.298Z,0.80
2019-02-05T21:02:55.850Z,0.82
2019-02-05T21:05:24.497Z,0.82
2019-02-05T21:07:53.169Z,0.82
2019-02-05T21:10:26.590Z,0.82
2019-02-05T21:12:55.202Z,0.83
2019-02-05T21:15:24.366Z,0.84
2019-02-05T21:17:53.086Z,0.85
2019-02-05T21:20:33.225Z,0.86
2019-02-05T21:23:00.813Z,0.88
2019-02-05T21:25:29.449Z,0.87
2019-02-05T21:27:58.726Z,0.86
2019-02-05T21:30:27.712Z,0.85
2019-02-05T21:32:56.302Z,0.85
2019-02-05T21:35:25.037Z,0.85
2019-02-05T21:37:56.636Z,0.86
2019-02-05T21:40:27.968Z,0.87
2019-02-05T21:42:56.724Z,0.86
2019-02-05T21:45:30.746Z,0.86
2019-02-05T21:47:59.217Z,0.87
2019-02-05T21:50:27.969Z,0.87
2019-02-05T21:52:57.058Z,0.88
2019-02-05T21:55:26.857Z,0.86
2019-02-05T21:57:56.350Z,0.88
2019-02-05T22:00:35.524Z,0.88
2019-02-05T22:03:05.392Z,0.87
2019-02-05T22:05:34.965Z,0.85
2019-02-05T22:08:04.192Z,0.87
2019-02-05T22:10:32.869Z,0.89
2019-02-05T22:13:01.396Z,0.89
2019-02-05T22:15:30.409Z,0.90
2019-02-05T22:17:59.099Z,0.88
2019-02-05T22:20:30.949Z,0.90
2019-02-05T22:23:01.171Z,0.90
2019-02-05T22:25:32.274Z,0.91
2019-02-05T22:28:01.152Z,0.92
2019-02-05T22:30:37.884Z,0.94
2019-02-05T22:33:08.004Z,0.92
2019-02-05T22:35:36.482Z,0.93
2019-02-05T22:38:06.450Z,0.92
2019-02-05T22:40:34.983Z,0.91
2019-02-05T22:43:04.159Z,0.92
2019-02-05T22:45:33.000Z,0.94
2019-02-05T22:48:01.631Z,0.95
2019-02-05T22:50:32.664Z,0.93
2019-02-05T22:53:02.313Z,0.93
2019-02-05T22:55:30.809Z,0.93
2019-02-05T22:57:59.375Z,0.94
2019-02-05T23:00:50.623Z,0.94
2019-02-05T23:03:37.585Z,0.94
2019-02-05T23:06:29.374Z,0.94
2019-02-05T23:09:01.337Z,0.93
2019-02-05T23:11:44.821Z,0.93
2019-02-05T23:14:14.349Z,0.94
2019-02-05T23:16:43.303Z,0.92
2019-02-05T23:19:11.984Z,0.91
2019-02-05T23:21:40.765Z,0.91
2019-02-05T23:24:09.771Z,0.92
2019-02-05T23:26:38.282Z,0.92
2019-02-05T23:29:06.892Z,0.95
2019-02-05T23:31:35.516Z,0.96
2019-02-05T23:34:04.087Z,0.97
2019-02-05T23:36:32.550Z,0.95
2019-02-05T23:39:01.012Z,0.96
2019-02-05T23:41:30.505Z,0.96
2019-02-05T23:43:59.039Z,0.97
2019-02-05T23:46:28.517Z,0.98
2019-02-05T23:48:57.223Z,0.96
2019-02-05T23:51:25.916Z,0.96
2019-02-05T23:53:54.660Z,0.96
2019-02-05T23:56:25.593Z,0.94
2019-02-05T23:58:53.364Z,0.93
